createdAt,value
2023-05-21T00:00:15.539Z,61.81
2023-05-21T00:02:42.047Z,61.46
2023-05-21T00:05:08.439Z,61.26
2023-05-21T00:07:34.744Z,61.21
2023-05-21T00:10:01.070Z,62.12
2023-05-21T00:12:27.379Z,61.67
2023-05-21T00:14:53.843Z,61.67
2023-05-21T00:17:20.229Z,62.44
2023-05-21T00:19:46.612Z,62.02
2023-05-21T00:22:13.074Z,62.73
2023-05-21T00:24:39.451Z,62.99
2023-05-21T00:27:05.793Z,63.09
2023-05-21T00:29:32.098Z,62.29
2023-05-21T00:31:58.452Z,62.34
2023-05-21T00:34:24.811Z,62.06
2023-05-21T00:36:51.136Z,62.63
2023-05-21T00:39:17.461Z,62.11
2023-05-21T00:41:43.791Z,62.50
2023-05-21T00:44:10.122Z,62.68
2023-05-21T00:46:36.457Z,62.88
2023-05-21T00:49:02.788Z,62.41
2023-05-21T00:51:29.114Z,62.50
2023-05-21T00:53:55.450Z,62.31
2023-05-21T00:56:21.751Z,63.21
2023-05-21T00:58:48.093Z,62.66
2023-05-21T01:01:14.477Z,62.88
2023-05-21T01:03:40.891Z,62.55
2023-05-21T01:06:07.267Z,62.44
2023-05-21T01:08:33.579Z,62.65
2023-05-21T01:10:59.901Z,62.81
2023-05-21T01:13:26.215Z,63.23
2023-05-21T01:15:52.540Z,62.75
2023-05-21T01:18:18.872Z,62.82
2023-05-21T01:20:45.197Z,62.75
2023-05-21T01:23:11.532Z,62.86
2023-05-21T01:25:38.158Z,62.87
2023-05-21T01:28:04.705Z,63.22
2023-05-21T01:30:31.042Z,63.05
2023-05-21T01:32:57.455Z,62.85
2023-05-21T01:35:23.914Z,62.98
2023-05-21T01:37:50.232Z,63.48
2023-05-21T01:40:16.566Z,62.89
2023-05-21T01:42:42.921Z,63.33
2023-05-21T01:45:09.220Z,63.58
2023-05-21T01:47:35.600Z,63.20
2023-05-21T01:50:01.979Z,63.15
2023-05-21T01:52:28.270Z,63.05
2023-05-21T01:54:54.581Z,63.44
2023-05-21T01:57:20.913Z,63.65
2023-05-21T01:59:47.233Z,63.55
2023-05-21T02:02:13.579Z,64.40
2023-05-21T02:04:39.914Z,64.13
2023-05-21T02:07:06.211Z,63.67
2023-05-21T02:09:32.500Z,63.77
2023-05-21T02:11:58.820Z,63.48
2023-05-21T02:14:25.156Z,63.55
2023-05-21T02:16:51.469Z,63.56
2023-05-21T02:19:18.234Z,63.62
2023-05-21T02:21:44.598Z,63.45
2023-05-21T02:24:10.898Z,63.67
2023-05-21T02:26:37.198Z,63.50
2023-05-21T02:29:03.525Z,63.51
2023-05-21T02:31:29.850Z,63.65
2023-05-21T02:33:56.213Z,63.85
2023-05-21T02:36:22.573Z,63.77
2023-05-21T02:38:48.865Z,64.15
2023-05-21T02:41:15.200Z,64.13
2023-05-21T02:43:41.546Z,63.92
2023-05-21T02:46:08.010Z,63.75
2023-05-21T02:48:34.366Z,64.37
2023-05-21T02:51:00.686Z,64.10
2023-05-21T02:53:26.989Z,64.01
2023-05-21T02:55:53.330Z,64.01
2023-05-21T02:58:19.695Z,64.08
2023-05-21T03:00:46.047Z,64.28
2023-05-21T03:03:12.429Z,63.93
2023-05-21T03:05:38.898Z,64.12
2023-05-21T03:08:05.298Z,64.51
2023-05-21T03:10:31.602Z,64.31
2023-05-21T03:12:58.014Z,64.62
2023-05-21T03:15:24.451Z,64.31
2023-05-21T03:17:50.814Z,64.61
2023-05-21T03:20:17.260Z,64.52
2023-05-21T03:22:43.575Z,65.66
2023-05-21T03:25:09.898Z,64.73
2023-05-21T03:27:36.243Z,64.76
2023-05-21T03:30:03.091Z,64.92
2023-05-21T03:32:30.224Z,65.88
2023-05-21T03:34:56.563Z,65.64
2023-05-21T03:37:22.949Z,65.74
2023-05-21T03:39:49.251Z,65.15
2023-05-21T03:42:15.561Z,65.46
2023-05-21T03:44:41.896Z,65.51
2023-05-21T03:47:08.213Z,65.52
2023-05-21T03:49:34.518Z,65.51
2023-05-21T03:52:00.836Z,65.04
2023-05-21T03:54:27.178Z,65.51
2023-05-21T03:56:53.497Z,65.23
2023-05-21T03:59:19.797Z,64.89
2023-05-21T04:01:46.138Z,64.99
2023-05-21T04:04:12.526Z,64.86
2023-05-21T04:06:38.969Z,64.73
2023-05-21T04:09:05.378Z,65.08
2023-05-21T04:11:31.702Z,64.73
2023-05-21T04:13:58.037Z,64.77
2023-05-21T04:16:24.504Z,65.17
2023-05-21T04:18:50.952Z,65.86
2023-05-21T04:21:17.289Z,65.70
2023-05-21T04:23:43.644Z,65.12
2023-05-21T04:26:09.993Z,65.27
2023-05-21T04:28:36.317Z,65.42
2023-05-21T04:31:02.787Z,65.22
2023-05-21T04:33:29.246Z,65.15
2023-05-21T04:35:55.565Z,65.10
2023-05-21T04:38:21.904Z,65.52
2023-05-21T04:40:48.220Z,65.42
2023-05-21T04:43:14.521Z,65.30
2023-05-21T04:45:40.836Z,65.03
2023-05-21T04:48:07.383Z,65.10
2023-05-21T04:50:33.764Z,64.45
2023-05-21T04:53:00.064Z,65.30
2023-05-21T04:55:26.438Z,64.67
2023-05-21T04:57:52.741Z,64.83
2023-05-21T05:00:19.048Z,64.71
2023-05-21T05:02:45.453Z,65.07
2023-05-21T05:05:11.830Z,64.84
2023-05-21T05:07:38.154Z,65.47
2023-05-21T05:10:04.458Z,64.82
2023-05-21T05:12:30.752Z,64.99
2023-05-21T05:14:57.098Z,65.39
2023-05-21T05:17:23.441Z,65.48
2023-05-21T05:19:49.762Z,65.26
2023-05-21T05:22:16.074Z,65.34
2023-05-21T05:24:42.380Z,65.13
2023-05-21T05:27:08.716Z,65.23
2023-05-21T05:29:35.043Z,64.94
2023-05-21T05:32:01.371Z,65.13
2023-05-21T05:34:27.716Z,65.32
2023-05-21T05:36:54.083Z,64.67
2023-05-21T05:39:20.395Z,64.97
2023-05-21T05:41:46.721Z,65.21
2023-05-21T05:44:13.030Z,64.84
2023-05-21T05:46:39.390Z,64.92
2023-05-21T05:49:05.822Z,64.66
2023-05-21T05:51:32.172Z,64.85
2023-05-21T05:53:58.508Z,64.89
2023-05-21T05:56:24.849Z,65.07
2023-05-21T05:58:51.186Z,64.66
2023-05-21T06:01:17.603Z,65.27
2023-05-21T06:03:44.034Z,65.06
2023-05-21T06:06:10.432Z,65.18
2023-05-21T06:08:38.336Z,64.94
2023-05-21T06:11:04.738Z,65.13
2023-05-21T06:13:31.066Z,64.86
2023-05-21T06:15:57.453Z,64.88
2023-05-21T06:18:23.788Z,65.05
2023-05-21T06:20:50.105Z,64.55
2023-05-21T06:23:16.481Z,64.44
2023-05-21T06:25:42.802Z,64.45
2023-05-21T06:28:09.099Z,64.56
2023-05-21T06:30:35.432Z,64.57
2023-05-21T06:33:01.894Z,64.73
2023-05-21T06:35:28.268Z,64.15
2023-05-21T06:37:54.662Z,63.77
2023-05-21T06:40:20.965Z,63.76
2023-05-21T06:42:47.304Z,64.52
2023-05-21T06:45:13.628Z,64.19
2023-05-21T06:47:39.986Z,63.94
2023-05-21T06:50:06.449Z,64.14
2023-05-21T06:52:32.811Z,63.96
2023-05-21T06:54:59.183Z,64.16
2023-05-21T06:57:25.485Z,63.78
2023-05-21T06:59:51.818Z,63.53
2023-05-21T07:02:18.265Z,63.87
2023-05-21T07:04:44.607Z,63.98
2023-05-21T07:07:11.099Z,63.67
2023-05-21T07:09:37.444Z,63.56
2023-05-21T07:12:03.792Z,63.92
2023-05-21T07:14:30.119Z,63.56
2023-05-21T07:16:56.501Z,63.24
2023-05-21T07:19:22.896Z,63.79
2023-05-21T07:21:49.277Z,63.18
2023-05-21T07:24:15.624Z,63.11
2023-05-21T07:26:41.963Z,63.01
2023-05-21T07:29:08.333Z,62.81
2023-05-21T07:31:34.782Z,62.33
2023-05-21T07:34:01.163Z,62.90
2023-05-21T07:36:27.493Z,62.30
2023-05-21T07:38:53.840Z,62.16
2023-05-21T07:41:20.169Z,61.53
2023-05-21T07:43:46.508Z,61.57
2023-05-21T07:46:12.870Z,61.58
2023-05-21T07:48:39.226Z,61.63
2023-05-21T07:51:05.555Z,61.85
2023-05-21T07:53:31.896Z,61.09
2023-05-21T07:55:58.227Z,61.24
2023-05-21T07:58:24.761Z,61.23
2023-05-21T08:00:51.116Z,61.25
2023-05-21T08:03:17.544Z,61.26
2023-05-21T08:05:43.927Z,61.06
2023-05-21T08:08:10.241Z,61.22
2023-05-21T08:10:36.591Z,61.06
2023-05-21T08:13:02.906Z,61.07
2023-05-21T08:15:29.229Z,61.00
2023-05-21T08:17:55.595Z,60.77
2023-05-21T08:20:21.978Z,60.51
2023-05-21T08:22:48.321Z,60.83
2023-05-21T08:25:14.644Z,61.38
2023-05-21T08:27:40.970Z,61.53
2023-05-21T08:30:07.284Z,60.85
2023-05-21T08:32:33.692Z,60.76
2023-05-21T08:35:00.063Z,59.80
2023-05-21T08:37:26.460Z,60.04
2023-05-21T08:39:52.860Z,59.60
2023-05-21T08:42:32.845Z,60.48
2023-05-21T08:45:03.074Z,60.61
2023-05-21T08:47:29.416Z,59.56
2023-05-21T08:49:55.763Z,60.10
2023-05-21T08:52:22.095Z,60.35
2023-05-21T08:54:48.425Z,60.28
2023-05-21T08:57:14.767Z,59.40
2023-05-21T08:59:41.068Z,59.78
2023-05-21T09:02:07.402Z,60.29
2023-05-21T09:04:33.788Z,60.38
2023-05-21T09:07:00.147Z,59.76
2023-05-21T09:09:26.484Z,60.18
2023-05-21T09:11:52.864Z,60.31
2023-05-21T09:14:19.185Z,59.92
2023-05-21T09:16:45.551Z,59.77
2023-05-21T09:19:11.938Z,59.46
2023-05-21T09:21:38.341Z,59.81
2023-05-21T09:24:04.853Z,59.16
2023-05-21T09:26:31.229Z,59.96
2023-05-21T09:28:57.558Z,59.50
2023-05-21T09:31:23.923Z,59.33
2023-05-21T09:33:50.304Z,59.52
2023-05-21T09:36:16.642Z,59.78
2023-05-21T09:38:42.977Z,59.73
2023-05-21T09:41:09.288Z,59.40
2023-05-21T09:43:35.680Z,58.58
2023-05-21T09:46:02.396Z,57.85
2023-05-21T09:48:28.807Z,57.58
2023-05-21T09:50:55.111Z,57.63
2023-05-21T09:53:21.457Z,58.55
2023-05-21T09:55:47.804Z,57.82
2023-05-21T09:58:14.118Z,56.87
2023-05-21T10:00:40.433Z,57.40
2023-05-21T10:03:06.791Z,57.14
2023-05-21T10:05:33.230Z,57.20
2023-05-21T10:07:59.576Z,56.78
2023-05-21T10:10:25.899Z,55.81
2023-05-21T10:12:52.228Z,56.86
2023-05-21T10:15:18.553Z,56.34
2023-05-21T10:17:44.930Z,56.22
2023-05-21T10:20:11.284Z,55.48
2023-05-21T10:22:37.621Z,56.19
2023-05-21T10:25:04.012Z,56.11
2023-05-21T10:27:32.288Z,55.84
2023-05-21T10:29:59.248Z,56.70
2023-05-21T10:32:25.730Z,56.08
2023-05-21T10:34:52.178Z,54.81
2023-05-21T10:37:18.561Z,53.54
2023-05-21T10:39:45.000Z,54.23
2023-05-21T10:42:11.333Z,53.86
2023-05-21T10:44:37.672Z,53.84
2023-05-21T10:47:04.033Z,54.77
2023-05-21T10:49:30.429Z,55.09
2023-05-21T10:51:56.751Z,54.42
2023-05-21T10:54:23.233Z,53.92
2023-05-21T10:56:49.619Z,54.19
2023-05-21T10:59:15.941Z,54.66
2023-05-21T11:01:42.408Z,53.48
2023-05-21T11:04:08.765Z,54.75
2023-05-21T11:06:35.131Z,53.70
2023-05-21T11:09:01.457Z,53.57
2023-05-21T11:11:29.822Z,52.73
2023-05-21T11:13:56.180Z,54.74
2023-05-21T11:16:22.547Z,52.73
2023-05-21T11:18:48.990Z,53.63
2023-05-21T11:21:15.381Z,52.59
2023-05-21T11:23:41.707Z,52.46
2023-05-21T11:26:08.051Z,51.66
2023-05-21T11:28:34.431Z,51.20
2023-05-21T11:31:00.764Z,49.62
2023-05-21T11:33:27.135Z,50.92
2023-05-21T11:35:53.476Z,49.36
2023-05-21T11:38:19.810Z,49.16
2023-05-21T11:40:46.179Z,50.75
2023-05-21T11:43:12.517Z,49.86
2023-05-21T11:45:38.809Z,49.67
2023-05-21T11:48:05.223Z,48.57
2023-05-21T11:50:31.591Z,49.49
2023-05-21T11:52:57.988Z,50.33
2023-05-21T11:55:24.324Z,51.34
2023-05-21T11:57:50.667Z,49.82
2023-05-21T12:00:17.006Z,49.87
2023-05-21T12:02:43.482Z,49.63
2023-05-21T12:05:10.292Z,49.44
2023-05-21T12:07:38.129Z,49.01
2023-05-21T12:10:04.490Z,48.51
2023-05-21T12:12:41.820Z,49.49
2023-05-21T12:15:16.779Z,48.44
2023-05-21T12:17:43.133Z,49.19
2023-05-21T12:20:09.461Z,48.31
2023-05-21T12:22:35.771Z,48.85
2023-05-21T12:25:02.114Z,49.07
2023-05-21T12:27:28.595Z,47.87
2023-05-21T12:29:54.904Z,48.24
2023-05-21T12:32:21.288Z,48.82
2023-05-21T12:34:47.687Z,48.05
2023-05-21T12:37:13.990Z,48.27
2023-05-21T12:39:40.329Z,47.83
2023-05-21T12:42:06.661Z,48.54
2023-05-21T12:44:34.409Z,47.33
2023-05-21T12:47:02.366Z,46.32
2023-05-21T12:49:28.669Z,47.47
2023-05-21T12:51:54.985Z,48.27
2023-05-21T12:54:21.270Z,48.17
2023-05-21T12:56:47.599Z,47.41
2023-05-21T12:59:13.902Z,47.74
2023-05-21T13:01:40.353Z,48.23
2023-05-21T13:04:06.763Z,47.60
2023-05-21T13:06:33.090Z,47.92
2023-05-21T13:08:59.443Z,48.06
2023-05-21T13:11:26.833Z,48.58
2023-05-21T13:13:53.127Z,48.11
2023-05-21T13:16:19.469Z,47.50
2023-05-21T13:18:45.833Z,47.11
2023-05-21T13:21:12.228Z,46.80
2023-05-21T13:23:38.565Z,46.55
2023-05-21T13:26:04.891Z,46.18
2023-05-21T13:28:31.267Z,46.19
2023-05-21T13:30:57.599Z,45.09
2023-05-21T13:33:24.084Z,44.68
2023-05-21T13:35:50.524Z,44.77
2023-05-21T13:38:16.845Z,43.22
2023-05-21T13:40:43.367Z,44.44
2023-05-21T13:43:09.878Z,46.36
2023-05-21T13:45:36.185Z,44.26
2023-05-21T13:48:02.561Z,46.04
2023-05-21T13:50:28.908Z,43.91
2023-05-21T13:52:55.222Z,44.83
2023-05-21T13:55:21.567Z,44.45
2023-05-21T13:57:47.903Z,44.36
2023-05-21T14:00:14.303Z,45.60
2023-05-21T14:02:40.739Z,45.76
2023-05-21T14:05:07.093Z,44.98
2023-05-21T14:07:33.492Z,44.23
2023-05-21T14:09:59.824Z,43.35
2023-05-21T14:12:26.165Z,44.54
2023-05-21T14:14:52.550Z,43.48
2023-05-21T14:17:18.873Z,43.44
2023-05-21T14:19:45.169Z,43.07
2023-05-21T14:22:11.540Z,44.33
2023-05-21T14:24:37.869Z,42.59
2023-05-21T14:27:04.201Z,42.71
2023-05-21T14:29:30.556Z,43.27
2023-05-21T14:31:56.881Z,42.79
2023-05-21T14:34:23.246Z,42.75
2023-05-21T14:36:49.607Z,42.66
2023-05-21T14:39:15.940Z,43.69
2023-05-21T14:41:42.261Z,43.55
2023-05-21T14:44:08.615Z,44.59
2023-05-21T14:46:34.969Z,46.06
2023-05-21T14:49:01.384Z,46.41
2023-05-21T14:51:27.728Z,45.81
2023-05-21T14:53:54.080Z,45.95
2023-05-21T14:56:20.386Z,45.08
2023-05-21T14:58:46.721Z,45.17
2023-05-21T15:01:13.066Z,44.93
2023-05-21T15:03:39.572Z,43.15
2023-05-21T15:06:06.038Z,43.71
2023-05-21T15:08:32.364Z,41.68
2023-05-21T15:10:58.713Z,43.52
2023-05-21T15:13:25.049Z,41.58
2023-05-21T15:15:51.421Z,42.71
2023-05-21T15:18:17.826Z,41.46
2023-05-21T15:20:44.126Z,41.55
2023-05-21T15:23:16.902Z,41.69
2023-05-21T15:25:43.875Z,41.59
2023-05-21T15:28:10.223Z,41.68
2023-05-21T15:30:36.519Z,40.33
2023-05-21T15:33:02.821Z,39.57
2023-05-21T15:35:29.240Z,39.52
2023-05-21T15:37:55.691Z,37.85
2023-05-21T15:40:22.640Z,37.44
2023-05-21T15:42:49.716Z,36.74
2023-05-21T15:45:16.106Z,35.14
2023-05-21T15:47:43.011Z,35.22
2023-05-21T15:50:09.446Z,35.58
2023-05-21T15:52:35.761Z,36.02
2023-05-21T15:55:02.096Z,36.22
2023-05-21T15:57:28.416Z,35.89
2023-05-21T15:59:54.748Z,36.47
2023-05-21T16:02:21.074Z,36.28
2023-05-21T16:04:47.403Z,36.55
2023-05-21T16:07:13.795Z,36.83
2023-05-21T16:09:40.098Z,36.32
2023-05-21T16:12:06.436Z,36.48
2023-05-21T16:14:32.746Z,35.66
2023-05-21T16:16:59.091Z,34.67
2023-05-21T16:19:25.531Z,35.34
2023-05-21T16:21:51.992Z,34.28
2023-05-21T16:24:18.317Z,33.92
2023-05-21T16:26:44.678Z,33.99
2023-05-21T16:29:11.004Z,32.44
2023-05-21T16:31:37.389Z,32.77
2023-05-21T16:34:03.738Z,32.29
2023-05-21T16:36:30.100Z,32.69
2023-05-21T16:38:56.428Z,31.54
2023-05-21T16:41:22.912Z,31.38
2023-05-21T16:43:49.261Z,32.33
2023-05-21T16:46:15.597Z,32.10
2023-05-21T16:48:41.969Z,31.06
2023-05-21T16:51:08.305Z,31.91
2023-05-21T16:53:34.672Z,32.50
2023-05-21T16:56:01.062Z,32.17
2023-05-21T16:58:27.390Z,29.74
2023-05-21T17:00:53.712Z,29.23
2023-05-21T17:03:20.240Z,29.76
2023-05-21T17:05:46.672Z,30.00
2023-05-21T17:08:13.021Z,30.83
2023-05-21T17:10:39.388Z,30.68
2023-05-21T17:13:17.720Z,29.07
2023-05-21T17:15:47.583Z,27.60
2023-05-21T17:18:13.950Z,27.80
2023-05-21T17:20:40.381Z,28.32
2023-05-21T17:23:06.793Z,29.57
2023-05-21T17:25:34.390Z,29.09
2023-05-21T17:28:01.178Z,30.25
2023-05-21T17:30:27.500Z,30.73
2023-05-21T17:32:53.898Z,31.20
2023-05-21T17:35:20.295Z,31.85
2023-05-21T17:37:46.627Z,33.02
2023-05-21T17:40:12.968Z,33.39
2023-05-21T17:42:39.310Z,33.65
2023-05-21T17:45:05.626Z,35.40
2023-05-21T17:47:32.023Z,35.98
2023-05-21T17:49:58.367Z,36.29
2023-05-21T17:52:24.689Z,36.01
2023-05-21T17:54:50.985Z,36.48
2023-05-21T17:57:17.283Z,37.02
2023-05-21T17:59:43.632Z,37.22
2023-05-21T18:02:09.996Z,37.99
2023-05-21T18:04:36.324Z,37.21
2023-05-21T18:07:02.719Z,38.06
2023-05-21T18:09:29.034Z,38.99
2023-05-21T18:11:55.543Z,38.95
2023-05-21T18:14:21.898Z,39.07
2023-05-21T18:16:48.308Z,38.84
2023-05-21T18:19:14.674Z,39.31
2023-05-21T18:21:41.065Z,39.83
2023-05-21T18:24:07.437Z,39.93
2023-05-21T18:26:33.780Z,39.56
2023-05-21T18:29:00.097Z,39.77
2023-05-21T18:31:26.611Z,40.16
2023-05-21T18:33:53.003Z,40.50
2023-05-21T18:36:19.317Z,40.39
2023-05-21T18:38:45.749Z,41.08
2023-05-21T18:41:12.066Z,41.32
2023-05-21T18:43:38.637Z,41.16
2023-05-21T18:46:04.961Z,41.08
2023-05-21T18:48:31.293Z,41.30
2023-05-21T18:50:57.668Z,41.59
2023-05-21T18:53:24.019Z,41.86
2023-05-21T18:55:50.356Z,41.72
2023-05-21T18:58:16.692Z,42.21
2023-05-21T19:00:43.033Z,42.24
2023-05-21T19:03:09.412Z,42.39
2023-05-21T19:05:35.856Z,42.18
2023-05-21T19:08:02.237Z,42.87
2023-05-21T19:10:28.740Z,42.82
2023-05-21T19:12:55.104Z,43.11
2023-05-21T19:15:21.516Z,43.24
2023-05-21T19:17:47.966Z,43.34
2023-05-21T19:20:14.318Z,43.30
2023-05-21T19:22:40.690Z,43.45
2023-05-21T19:25:07.027Z,43.52
2023-05-21T19:27:33.323Z,43.51
2023-05-21T19:29:59.637Z,43.88
2023-05-21T19:32:25.985Z,44.10
2023-05-21T19:34:52.415Z,44.60
2023-05-21T19:37:18.722Z,44.99
2023-05-21T19:39:45.046Z,45.46
2023-05-21T19:42:11.393Z,46.62
2023-05-21T19:44:37.733Z,46.39
2023-05-21T19:47:04.058Z,46.67
2023-05-21T19:49:30.394Z,47.30
2023-05-21T19:51:56.684Z,47.91
2023-05-21T19:54:22.981Z,48.72
2023-05-21T19:56:49.341Z,48.77
2023-05-21T19:59:15.839Z,48.39
2023-05-21T20:01:42.200Z,48.66
2023-05-21T20:04:08.627Z,48.58
2023-05-21T20:06:34.954Z,48.87
2023-05-21T20:09:01.532Z,48.46
2023-05-21T20:11:28.319Z,49.39
2023-05-21T20:13:54.890Z,49.90
2023-05-21T20:16:21.574Z,52.33
2023-05-21T20:18:48.205Z,50.85
2023-05-21T20:21:14.597Z,49.93
2023-05-21T20:23:40.975Z,50.50
2023-05-21T20:26:07.293Z,50.40
2023-05-21T20:28:33.608Z,51.48
2023-05-21T20:30:59.980Z,52.12
2023-05-21T20:33:26.370Z,51.76
2023-05-21T20:35:52.692Z,52.54
2023-05-21T20:38:18.995Z,53.20
2023-05-21T20:40:45.293Z,54.31
2023-05-21T20:43:11.699Z,54.91
2023-05-21T20:45:38.081Z,54.32
2023-05-21T20:48:04.414Z,54.89
2023-05-21T20:50:30.724Z,54.65
2023-05-21T20:52:57.088Z,54.60
2023-05-21T20:55:23.432Z,54.29
2023-05-21T20:57:49.755Z,53.59
2023-05-21T21:00:16.231Z,55.78
2023-05-21T21:02:42.725Z,56.49
2023-05-21T21:05:09.185Z,56.13
2023-05-21T21:07:35.488Z,56.29
2023-05-21T21:10:01.797Z,56.71
2023-05-21T21:12:28.154Z,55.86
2023-05-21T21:14:54.541Z,56.05
2023-05-21T21:17:20.975Z,56.42
2023-05-21T21:19:47.331Z,56.39
2023-05-21T21:22:13.655Z,56.67
2023-05-21T21:24:39.949Z,56.28
2023-05-21T21:27:06.274Z,55.49
2023-05-21T21:29:32.593Z,55.44
2023-05-21T21:31:58.906Z,55.43
2023-05-21T21:34:25.232Z,55.01
2023-05-21T21:36:51.581Z,54.75
2023-05-21T21:39:17.921Z,54.92
2023-05-21T21:41:44.225Z,54.68
2023-05-21T21:44:10.557Z,55.41
2023-05-21T21:46:36.869Z,54.98
2023-05-21T21:49:03.188Z,54.83
2023-05-21T21:51:29.628Z,55.31
2023-05-21T21:53:55.918Z,55.15
2023-05-21T21:56:22.232Z,55.50
2023-05-21T21:58:48.577Z,55.45
2023-05-21T22:01:14.993Z,55.03
2023-05-21T22:03:41.346Z,54.83
2023-05-21T22:06:07.647Z,55.15
2023-05-21T22:08:34.180Z,55.30
2023-05-21T22:11:00.513Z,55.18
2023-05-21T22:13:29.189Z,55.42
2023-05-21T22:15:56.229Z,55.08
2023-05-21T22:18:31.842Z,54.92
2023-05-21T22:21:05.565Z,55.03
2023-05-21T22:23:31.854Z,55.55
2023-05-21T22:25:58.189Z,55.13
2023-05-21T22:28:24.497Z,55.28
2023-05-21T22:30:50.850Z,56.52
2023-05-21T22:33:17.277Z,56.14
2023-05-21T22:35:43.604Z,56.22
2023-05-21T22:38:09.941Z,56.30
2023-05-21T22:40:36.521Z,56.14
2023-05-21T22:43:02.991Z,56.68
2023-05-21T22:45:29.311Z,56.01
2023-05-21T22:47:55.828Z,55.94
2023-05-21T22:50:22.139Z,56.35
2023-05-21T22:52:48.537Z,56.04
2023-05-21T22:55:14.861Z,56.03
2023-05-21T22:57:41.192Z,56.52
2023-05-21T23:00:07.561Z,57.53
2023-05-21T23:02:33.938Z,57.27
2023-05-21T23:05:00.493Z,57.68
2023-05-21T23:07:26.859Z,58.03
2023-05-21T23:09:53.175Z,58.77
2023-05-21T23:12:19.488Z,58.57
2023-05-21T23:14:45.815Z,58.81
2023-05-21T23:17:12.176Z,58.75
2023-05-21T23:19:38.481Z,59.06
2023-05-21T23:22:04.789Z,58.85
2023-05-21T23:24:31.104Z,59.10
2023-05-21T23:26:57.415Z,58.69
2023-05-21T23:29:23.770Z,59.55
2023-05-21T23:31:50.108Z,60.07
2023-05-21T23:34:16.407Z,60.12
2023-05-21T23:36:42.704Z,60.36
2023-05-21T23:39:09.186Z,60.83
2023-05-21T23:41:35.579Z,60.65
2023-05-21T23:44:01.901Z,60.19
2023-05-21T23:46:28.198Z,60.36
2023-05-21T23:48:54.484Z,60.99
2023-05-21T23:51:20.826Z,60.88
2023-05-21T23:53:47.112Z,60.70
2023-05-21T23:56:13.418Z,59.97
2023-05-21T23:58:39.699Z,60.08
